createdAt,value
2018-10-12T00:02:20.763Z,14.20
2018-10-12T00:04:48.281Z,14.35
2018-10-12T00:07:15.991Z,14.50
2018-10-12T00:09:43.501Z,14.53
2018-10-12T00:12:11.340Z,14.83
2018-10-12T00:14:38.791Z,14.40
2018-10-12T00:17:06.352Z,14.80
2018-10-12T00:19:33.807Z,14.05
2018-10-12T00:22:01.597Z,14.90
2018-10-12T00:24:29.429Z,14.83
2018-10-12T00:26:56.960Z,15.08
2018-10-12T00:29:24.427Z,14.75
2018-10-12T00:31:51.993Z,15.15
2018-10-12T00:34:19.760Z,15.72
2018-10-12T00:36:47.594Z,15.30
2018-10-12T00:39:15.051Z,14.53
2018-10-12T00:41:42.888Z,14.63
2018-10-12T00:44:10.308Z,14.83
2018-10-12T00:46:37.817Z,15.13
2018-10-12T00:49:05.292Z,15.10
2018-10-12T00:51:33.403Z,15.03
2018-10-12T00:54:00.918Z,15.50
2018-10-12T00:56:28.757Z,15.50
2018-10-12T00:58:56.532Z,15.18
2018-10-12T01:01:24.610Z,15.30
2018-10-12T01:03:52.486Z,15.90
2018-10-12T01:06:19.970Z,16.27
2018-10-12T01:08:47.757Z,15.65
2018-10-12T01:11:15.625Z,16.30
2018-10-12T01:13:43.513Z,15.70
2018-10-12T01:16:10.988Z,16.57
2018-10-12T01:18:38.471Z,16.52
2018-10-12T01:21:06.101Z,16.17
2018-10-12T01:23:33.685Z,17.60
2018-10-12T01:26:01.639Z,15.83
2018-10-12T01:28:29.418Z,16.10
2018-10-12T01:30:57.148Z,16.07
2018-10-12T01:33:25.101Z,16.52
2018-10-12T01:35:53.169Z,15.93
2018-10-12T01:38:20.672Z,16.20
2018-10-12T01:40:48.503Z,16.23
2018-10-12T01:43:16.263Z,16.30
2018-10-12T01:45:44.022Z,16.10
2018-10-12T01:48:11.536Z,16.52
2018-10-12T01:50:39.352Z,15.95
2018-10-12T01:53:07.135Z,16.70
2018-10-12T01:55:35.200Z,17.40
2018-10-12T01:58:02.948Z,16.12
2018-10-12T02:00:30.712Z,16.20
2018-10-12T02:02:58.582Z,16.05
2018-10-12T02:05:26.292Z,16.55
2018-10-12T02:07:53.837Z,16.45
2018-10-12T02:10:21.344Z,16.40
2018-10-12T02:12:48.865Z,16.37
2018-10-12T02:15:16.356Z,16.70
2018-10-12T02:17:44.296Z,16.40
2018-10-12T02:20:12.109Z,16.27
2018-10-12T02:22:39.621Z,15.85
2018-10-12T02:25:07.222Z,16.50
2018-10-12T02:27:35.208Z,16.75
2018-10-12T02:30:03.031Z,16.57
2018-10-12T02:32:30.847Z,16.62
2018-10-12T02:34:58.292Z,16.48
2018-10-12T02:37:26.105Z,16.30
2018-10-12T02:39:53.591Z,17.20
2018-10-12T02:42:21.728Z,16.40
2018-10-12T02:44:49.500Z,16.30
2018-10-12T02:47:16.980Z,16.50
2018-10-12T02:49:44.498Z,16.70
2018-10-12T02:52:12.552Z,16.77
2018-10-12T02:54:40.463Z,16.50
2018-10-12T02:57:08.320Z,16.50
2018-10-12T02:59:35.793Z,16.80
2018-10-12T03:02:03.650Z,16.75
2018-10-12T03:04:31.233Z,16.23
2018-10-12T03:06:59.025Z,16.32
2018-10-12T03:09:26.809Z,17.30
2018-10-12T03:11:54.876Z,16.40
2018-10-12T03:14:22.388Z,16.40
2018-10-12T03:16:49.890Z,16.30
2018-10-12T03:19:17.651Z,17.25
2018-10-12T03:21:45.439Z,16.73
2018-10-12T03:24:13.287Z,17.45
2018-10-12T03:26:40.805Z,17.30
2018-10-12T03:29:08.621Z,17.70
2018-10-12T03:31:36.412Z,17.07
2018-10-12T03:34:04.579Z,17.75
2018-10-12T03:36:32.733Z,16.55
2018-10-12T03:39:00.279Z,17.48
2018-10-12T03:41:28.084Z,17.57
2018-10-12T03:43:56.144Z,17.47
2018-10-12T03:46:24.012Z,17.50
2018-10-12T03:48:51.549Z,17.80
2018-10-12T03:51:19.620Z,18.07
2018-10-12T03:53:47.079Z,18.12
2018-10-12T03:56:14.877Z,17.92
2018-10-12T03:58:42.721Z,17.87
2018-10-12T04:01:10.183Z,17.97
2018-10-12T04:03:37.665Z,17.80
2018-10-12T04:06:05.516Z,17.73
2018-10-12T04:08:32.956Z,17.57
2018-10-12T04:11:00.424Z,17.80
2018-10-12T04:13:28.496Z,17.98
2018-10-12T04:15:56.015Z,18.90
2018-10-12T04:18:23.833Z,18.25
2018-10-12T04:20:51.352Z,18.42
2018-10-12T04:23:19.241Z,18.25
2018-10-12T04:25:46.696Z,18.60
2018-10-12T04:28:15.084Z,18.30
2018-10-12T04:30:42.625Z,18.15
2018-10-12T04:33:10.405Z,18.75
2018-10-12T04:35:38.168Z,18.20
2018-10-12T04:38:05.977Z,18.00
2018-10-12T04:41:23.017Z,18.80
2018-10-12T04:43:52.616Z,19.10
2018-10-12T04:46:23.836Z,18.62
2018-10-12T04:48:52.076Z,19.27
2018-10-12T04:51:21.817Z,18.80
2018-10-12T04:53:49.566Z,19.05
2018-10-12T04:56:19.036Z,19.60
2018-10-12T04:58:46.571Z,18.70
2018-10-12T05:01:14.117Z,18.82
2018-10-12T05:03:41.840Z,19.70
2018-10-12T05:06:09.717Z,19.90
2018-10-12T05:08:37.220Z,19.30
2018-10-12T05:11:04.806Z,19.33
2018-10-12T05:13:33.697Z,19.90
2018-10-12T05:16:02.001Z,19.50
2018-10-12T05:18:30.277Z,18.90
2018-10-12T05:20:58.886Z,18.62
2018-10-12T05:23:26.833Z,19.57
2018-10-12T05:25:54.404Z,19.90
2018-10-12T05:28:22.664Z,19.40
2018-10-12T05:30:50.735Z,19.00
2018-10-12T05:33:18.245Z,19.40
2018-10-12T05:35:45.938Z,19.73
2018-10-12T05:38:13.862Z,18.48
2018-10-12T05:40:41.340Z,19.50
2018-10-12T05:43:09.536Z,20.70
2018-10-12T05:45:36.984Z,19.80
2018-10-12T05:48:10.444Z,19.98
2018-10-12T05:50:38.287Z,19.20
2018-10-12T05:53:05.828Z,19.05
2018-10-12T05:55:34.048Z,20.60
2018-10-12T05:58:02.023Z,20.70
2018-10-12T06:00:29.532Z,20.10
2018-10-12T06:02:57.625Z,20.23
2018-10-12T06:05:25.410Z,20.30
2018-10-12T06:07:53.197Z,19.33
2018-10-12T06:10:21.220Z,20.20
2018-10-12T06:12:49.041Z,20.50
2018-10-12T06:15:16.517Z,19.80
2018-10-12T06:17:44.312Z,19.70
2018-10-12T06:20:12.061Z,20.30
2018-10-12T06:22:40.152Z,20.40
2018-10-12T06:25:07.677Z,20.10
2018-10-12T06:27:35.179Z,20.20
2018-10-12T06:30:03.525Z,20.17
2018-10-12T06:32:31.090Z,20.30
2018-10-12T06:34:58.769Z,20.57
2018-10-12T06:37:26.641Z,20.82
2018-10-12T06:39:54.064Z,19.90
2018-10-12T06:42:21.581Z,20.60
2018-10-12T06:44:49.307Z,21.12
2018-10-12T06:47:17.121Z,19.75
2018-10-12T06:49:44.844Z,21.07
2018-10-12T06:52:12.661Z,20.30
2018-10-12T06:54:40.487Z,20.52
2018-10-12T06:57:08.278Z,19.70
2018-10-12T06:59:36.113Z,21.10
2018-10-12T07:02:03.929Z,19.65
2018-10-12T07:04:31.953Z,19.50
2018-10-12T07:06:59.537Z,20.20
2018-10-12T07:09:27.086Z,19.90
2018-10-12T07:11:55.146Z,20.08
2018-10-12T07:14:22.673Z,19.95
2018-10-12T07:16:50.197Z,19.50
2018-10-12T07:19:17.935Z,19.20
2018-10-12T07:21:45.432Z,19.80
2018-10-12T07:24:13.145Z,18.75
2018-10-12T07:26:41.014Z,18.50
2018-10-12T07:29:08.883Z,18.95
2018-10-12T07:31:36.433Z,19.23
2018-10-12T07:34:03.869Z,19.32
2018-10-12T07:36:31.973Z,19.32
2018-10-12T07:38:59.525Z,19.32
2018-10-12T07:41:27.271Z,19.90
2018-10-12T07:43:54.767Z,19.57
2018-10-12T07:46:22.532Z,20.50
2018-10-12T07:48:50.625Z,19.65
2018-10-12T07:51:18.693Z,19.80
2018-10-12T07:53:46.832Z,19.87
2018-10-12T07:56:14.588Z,19.23
2018-10-12T07:58:42.354Z,18.40
2018-10-12T08:01:09.776Z,19.90
2018-10-12T08:03:37.505Z,19.30
2018-10-12T08:06:05.026Z,19.30
2018-10-12T08:08:32.508Z,19.55
2018-10-12T08:11:00.588Z,18.12
2018-10-12T08:13:28.569Z,18.57
2018-10-12T08:15:57.654Z,18.60
2018-10-12T08:18:25.752Z,18.60
2018-10-12T08:20:54.106Z,17.97
2018-10-12T08:23:22.061Z,16.45
2018-10-12T08:25:50.026Z,17.00
2018-10-12T08:28:17.649Z,16.73
2018-10-12T08:30:45.456Z,16.60
2018-10-12T08:33:13.053Z,16.30
2018-10-12T08:35:40.644Z,15.40
2018-10-12T08:38:08.535Z,15.80
2018-10-12T08:40:36.051Z,13.90
2018-10-12T08:43:03.872Z,14.00
2018-10-12T08:45:31.968Z,13.98
2018-10-12T08:47:59.816Z,13.75
2018-10-12T08:50:27.592Z,13.10
2018-10-12T08:52:55.452Z,13.10
2018-10-12T08:55:23.884Z,12.65
2018-10-12T08:57:51.688Z,12.03
2018-10-12T09:00:19.506Z,12.27
2018-10-12T09:02:47.392Z,12.05
2018-10-12T09:05:14.805Z,12.85
2018-10-12T09:07:42.327Z,11.90
2018-10-12T09:10:10.152Z,12.00
2018-10-12T09:12:38.152Z,11.70
2018-10-12T09:15:06.042Z,11.60
2018-10-12T09:17:34.152Z,12.15
2018-10-12T09:20:01.649Z,12.40
2018-10-12T09:22:29.450Z,12.88
2018-10-12T09:24:57.248Z,12.70
2018-10-12T09:27:24.981Z,13.70
2018-10-12T09:29:53.056Z,13.23
2018-10-12T09:32:20.832Z,12.15
2018-10-12T09:34:48.590Z,12.18
2018-10-12T09:37:16.118Z,11.90
2018-10-12T09:39:43.622Z,12.10
2018-10-12T09:42:11.102Z,11.00
2018-10-12T09:44:38.580Z,10.40
2018-10-12T09:47:06.378Z,10.80
2018-10-12T09:49:34.449Z,10.00
2018-10-12T09:52:02.010Z,9.70
2018-10-12T09:54:30.076Z,11.97
2018-10-12T09:58:07.077Z,9.50
2018-10-12T10:00:40.207Z,9.80
2018-10-12T10:03:13.097Z,9.40
2018-10-12T10:05:41.519Z,9.80
2018-10-12T10:08:09.096Z,9.23
2018-10-12T10:10:37.151Z,11.63
2018-10-12T10:13:04.657Z,9.98
2018-10-12T10:15:32.646Z,11.85
2018-10-12T10:18:00.144Z,9.60
2018-10-12T10:20:27.919Z,9.08
2018-10-12T10:22:55.435Z,8.90
2018-10-12T10:25:23.240Z,9.50
2018-10-12T10:27:51.052Z,8.90
2018-10-12T10:30:19.168Z,8.77
2018-10-12T10:32:46.954Z,9.30
2018-10-12T10:35:14.418Z,8.78
2018-10-12T10:37:41.900Z,8.40
2018-10-12T10:40:09.657Z,8.68
2018-10-12T10:42:37.123Z,8.45
2018-10-12T10:45:05.046Z,8.23
2018-10-12T10:47:32.529Z,8.30
2018-10-12T10:50:00.037Z,8.70
2018-10-12T10:52:27.599Z,8.20
2018-10-12T10:54:55.093Z,8.45
2018-10-12T10:57:22.984Z,8.43
2018-10-12T10:59:50.912Z,8.40
2018-10-12T11:02:18.465Z,7.90
2018-10-12T11:04:45.944Z,8.33
2018-10-12T11:07:13.813Z,7.90
2018-10-12T11:09:41.396Z,7.17
2018-10-12T11:12:09.253Z,7.53
2018-10-12T11:14:36.971Z,7.30
2018-10-12T11:17:04.781Z,7.28
2018-10-12T11:19:32.355Z,7.00
2018-10-12T11:21:59.788Z,6.78
2018-10-12T11:24:27.326Z,7.55
2018-10-12T11:26:55.222Z,6.83
2018-10-12T11:29:22.653Z,7.28
2018-10-12T11:31:50.127Z,6.70
2018-10-12T11:34:17.645Z,7.25
2018-10-12T11:36:45.158Z,7.03
2018-10-12T11:39:14.441Z,6.80
2018-10-12T11:41:41.947Z,6.37
2018-10-12T11:44:09.806Z,6.70
2018-10-12T11:46:37.878Z,6.40
2018-10-12T11:49:05.504Z,6.40
2018-10-12T11:51:32.985Z,5.80
2018-10-12T11:54:00.822Z,5.70
2018-10-12T11:56:28.585Z,5.60
2018-10-12T11:58:56.658Z,5.20
2018-10-12T12:01:24.124Z,5.78
2018-10-12T12:04:21.048Z,5.22
2018-10-12T12:06:48.797Z,4.90
2018-10-12T12:09:16.660Z,4.65
2018-10-12T12:11:44.499Z,4.92
2018-10-12T12:14:12.228Z,5.30
2018-10-12T12:16:39.636Z,5.37
2018-10-12T12:19:07.157Z,5.15
2018-10-12T12:21:34.925Z,4.72
2018-10-12T12:24:02.491Z,5.22
2018-10-12T12:26:30.041Z,4.50
2018-10-12T12:28:57.519Z,4.80
2018-10-12T12:31:25.326Z,12.07
2018-10-12T12:33:52.829Z,5.20
2018-10-12T12:36:21.188Z,5.03
2018-10-12T12:38:49.271Z,4.70
2018-10-12T12:41:17.134Z,5.08
2018-10-12T12:43:45.500Z,4.60
2018-10-12T12:46:13.627Z,5.08
2018-10-12T12:48:41.388Z,5.10
2018-10-12T12:51:09.532Z,4.87
2018-10-12T12:53:37.058Z,4.62
2018-10-12T12:56:04.845Z,4.75
2018-10-12T12:58:32.320Z,4.85
2018-10-12T13:01:00.073Z,5.03
2018-10-12T13:03:27.669Z,5.20
2018-10-12T13:05:55.157Z,5.10
2018-10-12T13:08:22.997Z,6.62
2018-10-12T13:10:50.570Z,4.70
2018-10-12T13:13:18.244Z,5.00
2018-10-12T13:15:46.116Z,4.80
2018-10-12T13:18:13.809Z,5.78
2018-10-12T13:20:41.338Z,5.00
2018-10-12T13:23:08.788Z,4.90
2018-10-12T13:25:36.590Z,5.62
2018-10-12T13:28:04.097Z,5.62
2018-10-12T13:30:31.634Z,5.15
2018-10-12T13:32:59.170Z,5.28
2018-10-12T13:35:26.736Z,4.85
2018-10-12T13:37:54.214Z,4.70
2018-10-12T13:40:22.569Z,4.50
2018-10-12T13:42:50.338Z,5.03
2018-10-12T13:45:18.338Z,4.40
2018-10-12T13:47:46.168Z,4.60
2018-10-12T13:50:13.641Z,4.10
2018-10-12T13:52:41.400Z,4.58
2018-10-12T13:55:08.877Z,4.60
2018-10-12T13:57:36.392Z,4.58
2018-10-12T14:00:03.993Z,4.67
2018-10-12T14:02:31.913Z,4.37
2018-10-12T14:04:59.716Z,4.37
2018-10-12T14:07:27.463Z,4.20
2018-10-12T14:09:54.896Z,4.30
2018-10-12T14:12:22.494Z,4.67
2018-10-12T14:14:50.301Z,4.50
2018-10-12T14:17:18.153Z,4.90
2018-10-12T14:19:45.925Z,4.33
2018-10-12T14:22:13.785Z,4.20
2018-10-12T14:24:41.605Z,4.40
2018-10-12T14:27:09.433Z,4.40
2018-10-12T14:29:37.251Z,3.90
2018-10-12T14:32:05.097Z,3.98
2018-10-12T14:34:32.638Z,7.85
2018-10-12T14:37:00.192Z,4.20
2018-10-12T14:39:27.660Z,4.50
2018-10-12T14:41:55.428Z,3.87
2018-10-12T14:44:23.191Z,4.10
2018-10-12T14:46:50.528Z,4.40
2018-10-12T14:49:18.339Z,4.50
2018-10-12T14:51:46.129Z,4.10
2018-10-12T14:54:13.640Z,4.30
2018-10-12T14:56:41.193Z,4.17
2018-10-12T14:59:09.003Z,4.30
2018-10-12T15:01:36.789Z,4.75
2018-10-12T15:04:04.349Z,4.33
2018-10-12T15:06:32.099Z,4.42
2018-10-12T15:08:59.567Z,4.55
2018-10-12T15:11:27.012Z,4.50
2018-10-12T15:13:54.521Z,5.00
2018-10-12T15:16:22.077Z,4.30
2018-10-12T15:18:49.605Z,4.60
2018-10-12T15:21:17.602Z,4.78
2018-10-12T15:23:44.983Z,4.72
2018-10-12T15:26:12.512Z,4.90
2018-10-12T15:28:40.373Z,4.40
2018-10-12T15:31:07.877Z,4.80
2018-10-12T15:33:35.333Z,4.60
2018-10-12T15:36:02.792Z,4.33
2018-10-12T15:38:30.275Z,4.85
2018-10-12T15:40:58.448Z,5.10
2018-10-12T15:43:25.988Z,5.30
2018-10-12T15:45:53.765Z,4.60
2018-10-12T15:48:21.256Z,5.45
2018-10-12T15:50:49.089Z,5.30
2018-10-12T15:53:17.263Z,5.78
2018-10-12T15:55:45.332Z,5.30
2018-10-12T15:58:12.820Z,4.60
2018-10-12T16:00:40.684Z,4.60
2018-10-12T16:03:08.415Z,6.40
2018-10-12T16:05:35.895Z,7.35
2018-10-12T16:08:03.956Z,6.00
2018-10-12T16:10:31.975Z,5.20
2018-10-12T16:12:59.897Z,6.13
2018-10-12T16:15:27.667Z,5.12
2018-10-12T16:17:55.176Z,5.00
2018-10-12T16:20:22.901Z,4.80
2018-10-12T16:22:50.359Z,4.90
2018-10-12T16:25:23.590Z,4.70
2018-10-12T16:27:51.363Z,4.80
2018-10-12T16:30:18.885Z,4.90
2018-10-12T16:32:46.412Z,5.00
2018-10-12T16:35:13.895Z,5.00
2018-10-12T16:37:41.483Z,6.97
2018-10-12T16:40:08.961Z,7.47
2018-10-12T16:42:36.457Z,5.90
2018-10-12T16:45:04.023Z,5.80
2018-10-12T16:47:31.797Z,5.50
2018-10-12T16:49:59.365Z,7.35
2018-10-12T16:52:27.403Z,7.50
2018-10-12T16:54:54.845Z,6.40
2018-10-12T16:57:31.036Z,6.00
2018-10-12T16:59:59.013Z,5.75
2018-10-12T17:02:26.491Z,5.60
2018-10-12T17:04:53.983Z,6.10
2018-10-12T17:07:21.477Z,6.28
2018-10-12T17:09:49.016Z,5.97
2018-10-12T17:12:16.504Z,7.00
2018-10-12T17:14:44.014Z,6.45
2018-10-12T17:17:11.720Z,6.28
2018-10-12T17:19:39.485Z,6.50
2018-10-12T17:22:07.775Z,6.40
2018-10-12T17:24:35.520Z,6.87
2018-10-12T17:27:03.012Z,6.72
2018-10-12T17:29:30.801Z,7.40
2018-10-12T17:31:58.308Z,7.47
2018-10-12T17:34:26.069Z,7.40
2018-10-12T17:36:53.617Z,7.10
2018-10-12T17:39:21.440Z,7.90
2018-10-12T17:41:49.261Z,7.80
2018-10-12T17:44:17.028Z,7.10
2018-10-12T17:46:44.762Z,7.28
2018-10-12T17:49:12.944Z,7.30
2018-10-12T17:51:40.730Z,6.90
2018-10-12T17:54:08.496Z,7.00
2018-10-12T17:56:36.304Z,7.53
2018-10-12T17:59:03.803Z,7.80
2018-10-12T18:01:31.586Z,8.00
2018-10-12T18:03:59.761Z,8.00
2018-10-12T18:06:27.569Z,8.50
2018-10-12T18:08:55.094Z,8.10
2018-10-12T18:11:22.528Z,7.90
2018-10-12T18:13:50.261Z,9.05
2018-10-12T18:16:17.793Z,9.43
2018-10-12T18:18:45.569Z,9.38
2018-10-12T18:21:13.066Z,9.03
2018-10-12T18:23:40.536Z,9.38
2018-10-12T18:26:08.089Z,9.20
2018-10-12T18:28:36.188Z,8.50
2018-10-12T18:31:03.628Z,8.60
2018-10-12T18:33:31.176Z,8.70
2018-10-12T18:35:58.675Z,8.88
2018-10-12T18:38:26.729Z,8.93
2018-10-12T18:40:54.246Z,8.65
2018-10-12T18:43:21.686Z,8.00
2018-10-12T18:45:49.583Z,7.90
2018-10-12T18:48:17.371Z,7.80
2018-10-12T18:50:44.881Z,7.70
2018-10-12T18:53:12.304Z,7.50
2018-10-12T18:55:39.830Z,7.72
2018-10-12T18:58:07.356Z,7.70
2018-10-12T19:00:35.177Z,7.78
2018-10-12T19:03:02.945Z,8.50
2018-10-12T19:05:30.477Z,8.90
2018-10-12T19:07:58.264Z,8.45
2018-10-12T19:10:25.784Z,9.40
2018-10-12T19:12:53.248Z,9.68
2018-10-12T19:15:20.861Z,9.33
2018-10-12T19:17:48.397Z,9.95
2018-10-12T19:20:16.194Z,9.38
2018-10-12T19:22:43.889Z,9.35
2018-10-12T19:25:11.734Z,9.30
2018-10-12T19:27:39.459Z,9.30
2018-10-12T19:30:07.282Z,10.40
2018-10-12T19:32:34.781Z,10.58
2018-10-12T19:35:02.349Z,10.18
2018-10-12T19:37:30.164Z,10.25
2018-10-12T19:39:57.644Z,10.30
2018-10-12T19:42:25.423Z,10.70
2018-10-12T19:44:53.514Z,10.78
2018-10-12T19:47:21.386Z,10.50
2018-10-12T19:49:48.892Z,10.18
2018-10-12T19:52:16.637Z,10.65
2018-10-12T19:54:44.512Z,10.33
2018-10-12T19:57:12.002Z,10.32
2018-10-12T19:59:39.491Z,10.60
2018-10-12T20:02:07.271Z,10.70
2018-10-12T20:04:35.117Z,11.05
2018-10-12T20:07:02.857Z,11.85
2018-10-12T20:09:30.349Z,10.80
2018-10-12T20:11:58.217Z,11.57
2018-10-12T20:14:26.386Z,11.30
2018-10-12T20:16:54.217Z,11.78
2018-10-12T20:19:21.688Z,12.00
2018-10-12T20:21:49.492Z,12.00
2018-10-12T20:24:17.021Z,11.50
2018-10-12T20:26:44.876Z,12.55
2018-10-12T20:29:12.555Z,12.10
2018-10-12T20:31:40.156Z,12.43
2018-10-12T20:34:07.949Z,11.50
2018-10-12T20:36:35.783Z,12.03
2018-10-12T20:39:04.754Z,12.60
2018-10-12T20:41:32.223Z,12.50
2018-10-12T20:44:00.275Z,13.22
2018-10-12T20:46:27.736Z,12.82
2018-10-12T20:48:55.525Z,12.15
2018-10-12T20:51:23.028Z,11.97
2018-10-12T20:53:50.868Z,12.37
2018-10-12T20:56:18.760Z,11.80
2018-10-12T20:58:46.570Z,11.88
2018-10-12T21:01:14.291Z,12.73
2018-10-12T21:03:41.776Z,12.40
2018-10-12T21:06:09.471Z,12.80
2018-10-12T21:08:37.616Z,11.90
2018-10-12T21:11:05.534Z,12.00
2018-10-12T21:13:33.037Z,12.47
2018-10-12T21:16:01.113Z,12.40
2018-10-12T21:18:29.202Z,12.00
2018-10-12T21:20:56.956Z,12.60
2018-10-12T21:23:24.443Z,13.00
2018-10-12T21:25:51.933Z,13.03
2018-10-12T21:28:19.798Z,12.70
2018-10-12T21:30:47.609Z,13.18
2018-10-12T21:33:15.129Z,12.90
2018-10-12T21:35:42.893Z,13.90
2018-10-12T21:38:10.382Z,13.48
2018-10-12T21:40:37.966Z,13.77
2018-10-12T21:43:05.832Z,12.95
2018-10-12T21:45:33.389Z,13.07
2018-10-12T21:48:00.909Z,13.53
2018-10-12T21:50:28.401Z,13.50
2018-10-12T21:52:56.313Z,13.33
2018-10-12T21:55:23.784Z,13.40
2018-10-12T21:57:51.277Z,13.67
2018-10-12T22:00:19.025Z,13.72
2018-10-12T22:02:47.116Z,13.48
2018-10-12T22:05:14.985Z,13.80
2018-10-12T22:07:42.749Z,13.70
2018-10-12T22:10:10.581Z,13.50
2018-10-12T22:12:38.248Z,13.40
2018-10-12T22:15:05.719Z,13.72
2018-10-12T22:17:33.492Z,13.83
2018-10-12T22:20:01.001Z,14.40
2018-10-12T22:22:29.135Z,13.53
2018-10-12T22:24:56.628Z,13.90
2018-10-12T22:27:24.093Z,13.90
2018-10-12T22:29:52.224Z,13.68
2018-10-12T22:32:20.046Z,13.62
2018-10-12T22:34:48.176Z,13.88
2018-10-12T22:37:15.721Z,13.80
2018-10-12T22:39:43.793Z,13.90
2018-10-12T22:42:12.700Z,14.13
2018-10-12T22:44:40.265Z,13.55
2018-10-12T22:47:08.630Z,14.28
2018-10-12T22:49:36.121Z,14.10
2018-10-12T22:52:03.545Z,13.60
2018-10-12T22:54:31.411Z,13.48
2018-10-12T22:56:58.901Z,13.60
2018-10-12T22:59:26.977Z,14.43
2018-10-12T23:01:54.545Z,14.55
2018-10-12T23:04:22.380Z,15.03
2018-10-12T23:06:49.918Z,15.35
2018-10-12T23:09:17.405Z,15.48
2018-10-12T23:11:44.906Z,15.00
2018-10-12T23:14:12.725Z,15.23
2018-10-12T23:16:40.204Z,16.37
2018-10-12T23:19:07.676Z,15.50
2018-10-12T23:21:35.161Z,15.80
2018-10-12T23:24:02.923Z,16.50
2018-10-12T23:26:30.456Z,16.27
2018-10-12T23:28:58.661Z,15.98
2018-10-12T23:31:26.217Z,15.43
2018-10-12T23:33:59.194Z,15.70
2018-10-12T23:36:27.049Z,15.70
2018-10-12T23:38:54.507Z,16.37
2018-10-12T23:41:22.278Z,15.50
2018-10-12T23:43:50.088Z,15.25
2018-10-12T23:46:17.886Z,16.17
2018-10-12T23:48:45.716Z,15.10
2018-10-12T23:51:13.213Z,15.40
2018-10-12T23:53:40.700Z,15.20
2018-10-12T23:56:08.532Z,15.23
2018-10-12T23:58:36.020Z,14.93
